createdAt,value
2017-02-03T00:00:37.740Z,1007.86
2017-02-03T00:01:18.382Z,1007.84
2017-02-03T00:01:59.959Z,1007.82
2017-02-03T00:02:40.709Z,1007.81
2017-02-03T00:03:21.414Z,1007.83
2017-02-03T00:04:02.017Z,1007.78
2017-02-03T00:04:42.648Z,1007.87
2017-02-03T00:05:23.287Z,1007.86
2017-02-03T00:06:03.982Z,1007.89
2017-02-03T00:06:45.608Z,1007.93
2017-02-03T00:07:26.302Z,1007.9
2017-02-03T00:08:06.962Z,1007.9
2017-02-03T00:08:47.665Z,1007.97
2017-02-03T00:09:28.407Z,1007.93
2017-02-03T00:10:09.041Z,1007.94
2017-02-03T00:10:49.732Z,1007.82
2017-02-03T00:11:30.361Z,1007.85
2017-02-03T00:12:11.025Z,1007.81
2017-02-03T00:12:51.654Z,1007.85
2017-02-03T00:13:32.284Z,1007.85
2017-02-03T00:14:12.961Z,1007.85
2017-02-03T00:14:53.567Z,1007.9
2017-02-03T00:15:34.322Z,1007.88
2017-02-03T00:16:14.988Z,1007.81
2017-02-03T00:16:55.623Z,1007.79
2017-02-03T00:17:36.326Z,1007.78
2017-02-03T00:18:17.092Z,1007.77
2017-02-03T00:18:57.721Z,1007.79
2017-02-03T00:19:38.386Z,1007.69
2017-02-03T00:20:19.031Z,1007.73
2017-02-03T00:20:59.679Z,1007.78
2017-02-03T00:21:40.335Z,1007.79
2017-02-03T00:22:20.984Z,1007.89
2017-02-03T00:23:01.651Z,1007.8
2017-02-03T00:23:42.288Z,1007.84
2017-02-03T00:24:22.925Z,1007.82
2017-02-03T00:25:03.642Z,1007.84
2017-02-03T00:25:44.281Z,1007.81
2017-02-03T00:26:24.967Z,1007.86
2017-02-03T00:27:05.652Z,1007.91
2017-02-03T00:27:46.276Z,1007.86
2017-02-03T00:28:26.999Z,1007.83
2017-02-03T00:29:07.632Z,1007.92
2017-02-03T00:29:48.270Z,1007.93
2017-02-03T00:30:28.965Z,1007.92
2017-02-03T00:31:09.705Z,1007.91
2017-02-03T00:31:50.356Z,1007.93
2017-02-03T00:32:30.998Z,1007.9
2017-02-03T00:33:11.701Z,1007.91
2017-02-03T00:33:52.423Z,1007.95
2017-02-03T00:34:33.051Z,1007.94
2017-02-03T00:35:13.727Z,1007.9
2017-02-03T00:35:54.404Z,1007.95
2017-02-03T00:36:35.056Z,1007.96
2017-02-03T00:37:15.695Z,1007.96
2017-02-03T00:37:56.324Z,1008.01
2017-02-03T00:38:36.991Z,1008.05
2017-02-03T00:39:17.664Z,1007.98
2017-02-03T00:39:58.373Z,1007.9
2017-02-03T00:40:39.008Z,1007.93
2017-02-03T00:41:19.644Z,1007.89
2017-02-03T00:42:00.377Z,1007.87
2017-02-03T00:42:41.116Z,1007.88
2017-02-03T00:43:21.779Z,1007.8
2017-02-03T00:44:02.415Z,1007.87
2017-02-03T00:44:43.052Z,1007.95
2017-02-03T00:45:23.716Z,1007.87
2017-02-03T00:46:04.353Z,1007.98
2017-02-03T00:46:45.037Z,1007.99
2017-02-03T00:47:25.738Z,1008
2017-02-03T00:48:06.372Z,1007.97
2017-02-03T00:48:47.103Z,1008.1
2017-02-03T00:49:27.825Z,1008.03
2017-02-03T00:50:08.446Z,1008.07
2017-02-03T00:50:49.164Z,1008.06
2017-02-03T00:51:29.791Z,1008.04
2017-02-03T00:52:10.479Z,1008.08
2017-02-03T00:52:51.069Z,1008.14
2017-02-03T00:53:31.820Z,1008.07
2017-02-03T00:54:12.472Z,1008.07
2017-02-03T00:54:53.112Z,1008.05
2017-02-03T00:55:33.844Z,1008
2017-02-03T00:56:14.544Z,1007.95
2017-02-03T00:56:55.179Z,1007.97
2017-02-03T00:57:35.883Z,1007.98
2017-02-03T00:58:16.528Z,1007.91
2017-02-03T00:58:57.167Z,1007.84
2017-02-03T00:59:37.782Z,1007.88
2017-02-03T01:00:18.541Z,1007.86
2017-02-03T01:00:59.185Z,1007.82
2017-02-03T01:01:39.814Z,1007.86
2017-02-03T01:02:20.537Z,1007.81
2017-02-03T01:03:01.210Z,1007.77
2017-02-03T01:03:41.853Z,1007.74
2017-02-03T01:04:22.558Z,1007.69
2017-02-03T01:05:03.193Z,1007.72
2017-02-03T01:05:43.825Z,1007.64
2017-02-03T01:06:25.417Z,1007.68
2017-02-03T01:07:06.097Z,1007.7
2017-02-03T01:07:46.822Z,1007.66
2017-02-03T01:08:27.467Z,1007.69
2017-02-03T01:09:08.132Z,1007.63
2017-02-03T01:09:48.806Z,1007.74
2017-02-03T01:10:29.450Z,1007.68
2017-02-03T01:11:10.084Z,1007.62
2017-02-03T01:11:50.723Z,1007.69
2017-02-03T01:12:31.365Z,1007.67
2017-02-03T01:13:11.992Z,1007.6
2017-02-03T01:13:52.703Z,1007.63
2017-02-03T01:14:33.339Z,1007.62
2017-02-03T01:15:14.060Z,1007.55
2017-02-03T01:15:54.721Z,1007.67
2017-02-03T01:16:35.356Z,1007.64
2017-02-03T01:17:15.984Z,1007.62
2017-02-03T01:17:56.612Z,1007.49
2017-02-03T01:18:37.244Z,1007.57
2017-02-03T01:19:17.877Z,1007.47
2017-02-03T01:19:58.628Z,1007.55
2017-02-03T01:20:39.258Z,1007.42
2017-02-03T01:21:19.986Z,1007.41
2017-02-03T01:22:00.635Z,1007.37
2017-02-03T01:22:41.272Z,1007.45
2017-02-03T01:23:21.902Z,1007.33
2017-02-03T01:24:02.569Z,1007.27
2017-02-03T01:24:43.831Z,1007.28
2017-02-03T01:25:24.456Z,1007.1
2017-02-03T01:26:05.118Z,1007.11
2017-02-03T01:26:45.771Z,1007.01
2017-02-03T01:27:26.481Z,1007.02
2017-02-03T01:28:07.126Z,1007
2017-02-03T01:28:47.758Z,1006.92
2017-02-03T01:29:28.466Z,1006.99
2017-02-03T01:30:09.105Z,1006.99
2017-02-03T01:30:49.731Z,1007.1
2017-02-03T01:31:30.402Z,1007.1
2017-02-03T01:32:11.147Z,1007.16
2017-02-03T01:32:51.891Z,1007.17
2017-02-03T01:33:32.447Z,1007.18
2017-02-03T01:34:13.080Z,1007.24
2017-02-03T01:34:53.725Z,1007.35
2017-02-03T01:35:34.357Z,1007.33
2017-02-03T01:36:15.019Z,1007.32
2017-02-03T01:36:55.705Z,1007.39
2017-02-03T01:37:36.355Z,1007.38
2017-02-03T01:38:16.990Z,1007.62
2017-02-03T01:38:57.679Z,1007.59
2017-02-03T01:39:38.305Z,1007.59
2017-02-03T01:40:19.024Z,1007.66
2017-02-03T01:40:59.647Z,1007.76
2017-02-03T01:41:40.284Z,1007.81
2017-02-03T01:42:21.807Z,1007.89
2017-02-03T01:43:02.537Z,1007.89
2017-02-03T01:43:43.181Z,1008.06
2017-02-03T01:44:23.841Z,1008.09
2017-02-03T01:45:04.471Z,1008.21
2017-02-03T01:45:45.108Z,1008.27
2017-02-03T01:46:25.735Z,1008.19
2017-02-03T01:47:06.387Z,1008.2
2017-02-03T01:47:47.018Z,1008.3
2017-02-03T01:48:27.650Z,1008.24
2017-02-03T01:49:08.287Z,1008.35
2017-02-03T01:49:48.915Z,1008.36
2017-02-03T01:50:29.574Z,1008.3
2017-02-03T01:51:10.203Z,1008.37
2017-02-03T01:51:50.841Z,1008.45
2017-02-03T01:52:31.465Z,1008.35
2017-02-03T01:53:12.099Z,1008.39
2017-02-03T01:53:52.734Z,1008.43
2017-02-03T01:54:33.388Z,1008.45
2017-02-03T01:55:14.009Z,1008.52
2017-02-03T01:55:54.646Z,1008.39
2017-02-03T01:56:35.319Z,1008.36
2017-02-03T01:57:15.939Z,1008.39
2017-02-03T01:57:56.567Z,1008.26
2017-02-03T01:58:37.193Z,1008.38
2017-02-03T01:59:17.859Z,1008.43
2017-02-03T01:59:58.490Z,1008.32
2017-02-03T02:00:39.124Z,1008.25
2017-02-03T02:01:19.793Z,1008.25
2017-02-03T02:02:00.439Z,1008.3
2017-02-03T02:02:41.139Z,1008.24
2017-02-03T02:03:21.912Z,1008.1
2017-02-03T02:04:02.573Z,1008.2
2017-02-03T02:04:43.184Z,1008.19
2017-02-03T02:05:23.808Z,1008.03
2017-02-03T02:06:04.446Z,1008.01
2017-02-03T02:06:45.123Z,1007.9
2017-02-03T02:07:25.857Z,1007.95
2017-02-03T02:08:06.521Z,1008.09
2017-02-03T02:08:47.166Z,1008.02
2017-02-03T02:09:27.866Z,1008.15
2017-02-03T02:10:08.498Z,1008.18
2017-02-03T02:10:49.132Z,1008.18
2017-02-03T02:11:29.835Z,1008.27
2017-02-03T02:12:10.467Z,1008.21
2017-02-03T02:12:51.099Z,1008.29
2017-02-03T02:13:31.750Z,1008.35
2017-02-03T02:14:12.391Z,1008.31
2017-02-03T02:14:53.020Z,1008.29
2017-02-03T02:15:33.693Z,1008.37
2017-02-03T02:16:14.355Z,1008.44
2017-02-03T02:16:54.977Z,1008.53
2017-02-03T02:17:35.612Z,1008.52
2017-02-03T02:18:16.276Z,1008.49
2017-02-03T02:18:56.903Z,1008.57
2017-02-03T02:19:37.532Z,1008.58
2017-02-03T02:20:18.210Z,1008.5
2017-02-03T02:20:58.843Z,1008.5
2017-02-03T02:21:39.476Z,1008.5
2017-02-03T02:22:20.184Z,1008.51
2017-02-03T02:23:00.820Z,1008.45
2017-02-03T02:23:41.454Z,1008.43
2017-02-03T02:24:22.206Z,1008.34
2017-02-03T02:25:02.841Z,1008.43
2017-02-03T02:25:43.464Z,1008.35
2017-02-03T02:26:24.095Z,1008.38
2017-02-03T02:27:04.800Z,1008.36
2017-02-03T02:27:45.430Z,1008.38
2017-02-03T02:28:26.060Z,1008.37
2017-02-03T02:29:06.695Z,1008.26
2017-02-03T02:29:47.329Z,1008.37
2017-02-03T02:30:27.970Z,1008.3
2017-02-03T02:31:08.668Z,1008.37
2017-02-03T02:31:49.311Z,1008.33
2017-02-03T02:32:29.954Z,1008.31
2017-02-03T02:33:10.583Z,1008.24
2017-02-03T02:33:51.220Z,1008.27
2017-02-03T02:34:32.815Z,1008.24
2017-02-03T02:35:13.446Z,1008.17
2017-02-03T02:35:54.081Z,1008.22
2017-02-03T02:36:34.767Z,1008.29
2017-02-03T02:37:15.393Z,1008.37
2017-02-03T02:37:56.032Z,1008.3
2017-02-03T02:38:36.666Z,1008.3
2017-02-03T02:39:17.294Z,1008.27
2017-02-03T02:39:57.926Z,1008.28
2017-02-03T02:40:38.624Z,1008.31
2017-02-03T02:41:19.253Z,1008.27
2017-02-03T02:41:59.899Z,1008.2
2017-02-03T02:42:40.673Z,1008.24
2017-02-03T02:43:21.312Z,1008.19
2017-02-03T02:44:01.934Z,1008.16
2017-02-03T02:44:42.611Z,1008.21
2017-02-03T02:45:23.367Z,1008.2
2017-02-03T02:46:04.014Z,1007.99
2017-02-03T02:46:44.647Z,1008.2
2017-02-03T02:47:25.352Z,1008.09
2017-02-03T02:48:05.984Z,1008.17
2017-02-03T02:48:46.619Z,1008.04
2017-02-03T02:49:27.767Z,1008.08
2017-02-03T02:50:08.459Z,1008.18
2017-02-03T02:50:49.181Z,1008.16
2017-02-03T02:51:29.805Z,1008.17
2017-02-03T02:52:10.440Z,1008.17
2017-02-03T02:52:51.152Z,1008.19
2017-02-03T02:53:31.868Z,1008.16
2017-02-03T02:54:12.500Z,1008.22
2017-02-03T02:54:53.120Z,1008.11
2017-02-03T02:55:33.821Z,1008.26
2017-02-03T02:56:14.438Z,1008.26
2017-02-03T02:56:55.074Z,1008.15
2017-02-03T02:57:35.746Z,1008.24
2017-02-03T02:58:16.395Z,1008.22
2017-02-03T02:58:57.040Z,1008.17
2017-02-03T02:59:37.704Z,1008.22
2017-02-03T03:00:18.332Z,1008.14
2017-02-03T03:00:58.963Z,1008.16
2017-02-03T03:01:39.687Z,1008.07
2017-02-03T03:02:20.323Z,1008.16
2017-02-03T03:03:00.954Z,1008.13
2017-02-03T03:03:41.646Z,1008.13
2017-02-03T03:04:22.283Z,1008.08
2017-02-03T03:05:02.907Z,1008.14
2017-02-03T03:05:43.540Z,1008.13
2017-02-03T03:06:24.166Z,1008
2017-02-03T03:07:04.786Z,1007.91
2017-02-03T03:07:45.422Z,1008.03
2017-02-03T03:08:26.044Z,1007.97
2017-02-03T03:09:06.685Z,1007.99
2017-02-03T03:09:47.326Z,1007.94
2017-02-03T03:10:27.951Z,1008.09
2017-02-03T03:11:08.590Z,1008.06
2017-02-03T03:11:49.215Z,1008.02
2017-02-03T03:12:29.846Z,1007.84
2017-02-03T03:13:10.484Z,1007.92
2017-02-03T03:13:51.114Z,1007.86
2017-02-03T03:14:31.744Z,1007.93
2017-02-03T03:15:12.368Z,1007.91
2017-02-03T03:15:52.996Z,1007.86
2017-02-03T03:16:33.628Z,1007.85
2017-02-03T03:17:14.338Z,1007.93
2017-02-03T03:17:55.006Z,1007.94
2017-02-03T03:18:35.696Z,1007.87
2017-02-03T03:19:16.337Z,1007.84
2017-02-03T03:19:56.971Z,1007.8
2017-02-03T03:20:37.682Z,1007.77
2017-02-03T03:21:18.312Z,1007.82
2017-02-03T03:21:58.942Z,1007.83
2017-02-03T03:22:39.578Z,1007.84
2017-02-03T03:23:20.208Z,1007.72
2017-02-03T03:24:00.969Z,1008
2017-02-03T03:24:41.656Z,1007.83
2017-02-03T03:25:22.289Z,1007.88
2017-02-03T03:26:03.986Z,1007.83
2017-02-03T03:26:44.672Z,1007.92
2017-02-03T03:27:25.314Z,1007.99
2017-02-03T03:28:05.993Z,1007.79
2017-02-03T03:28:46.633Z,1007.85
2017-02-03T03:29:27.348Z,1007.91
2017-02-03T03:30:07.971Z,1007.82
2017-02-03T03:30:48.620Z,1007.89
2017-02-03T03:31:29.242Z,1007.95
2017-02-03T03:32:09.868Z,1007.81
2017-02-03T03:32:50.505Z,1007.87
2017-02-03T03:33:31.145Z,1007.9
2017-02-03T03:34:11.786Z,1007.8
2017-02-03T03:34:52.442Z,1007.76
2017-02-03T03:35:33.077Z,1007.76
2017-02-03T03:36:13.704Z,1007.84
2017-02-03T03:36:54.332Z,1007.63
2017-02-03T03:37:35.024Z,1007.79
2017-02-03T03:38:15.651Z,1007.77
2017-02-03T03:38:56.343Z,1007.69
2017-02-03T03:39:37.068Z,1007.78
2017-02-03T03:40:17.698Z,1007.87
2017-02-03T03:40:58.325Z,1007.88
2017-02-03T03:41:38.953Z,1008.01
2017-02-03T03:42:19.596Z,1007.96
2017-02-03T03:43:00.249Z,1007.97
2017-02-03T03:43:40.912Z,1008.02
2017-02-03T03:44:21.549Z,1008.03
2017-02-03T03:45:02.236Z,1007.98
2017-02-03T03:45:42.962Z,1008.17
2017-02-03T03:46:23.610Z,1007.96
2017-02-03T03:47:04.255Z,1007.99
2017-02-03T03:47:44.964Z,1007.99
2017-02-03T03:48:25.605Z,1007.8
2017-02-03T03:49:06.234Z,1007.97
2017-02-03T03:49:46.917Z,1007.83
2017-02-03T03:50:27.547Z,1007.77
2017-02-03T03:51:08.183Z,1007.78
2017-02-03T03:51:48.840Z,1007.73
2017-02-03T03:52:29.469Z,1007.73
2017-02-03T03:53:10.092Z,1007.7
2017-02-03T03:53:50.769Z,1007.69
2017-02-03T03:54:31.393Z,1007.71
2017-02-03T03:55:12.022Z,1007.78
2017-02-03T03:55:52.680Z,1007.72
2017-02-03T03:56:33.337Z,1007.8
2017-02-03T03:57:13.964Z,1007.66
2017-02-03T03:57:54.646Z,1007.71
2017-02-03T03:58:35.297Z,1007.64
2017-02-03T03:59:15.927Z,1007.66
2017-02-03T03:59:56.620Z,1007.62
2017-02-03T04:00:37.296Z,1007.62
2017-02-03T04:01:18.032Z,1007.52
2017-02-03T04:01:58.690Z,1007.56
2017-02-03T04:02:39.429Z,1007.5
2017-02-03T04:03:20.055Z,1007.45
2017-02-03T04:04:00.699Z,1007.4
2017-02-03T04:04:41.388Z,1007.38
2017-02-03T04:05:22.063Z,1007.4
2017-02-03T04:06:02.699Z,1007.46
2017-02-03T04:06:43.390Z,1007.58
2017-02-03T04:07:24.071Z,1007.61
2017-02-03T04:08:04.733Z,1007.68
2017-02-03T04:08:45.378Z,1007.62
2017-02-03T04:09:25.999Z,1007.63
2017-02-03T04:10:06.708Z,1007.55
2017-02-03T04:10:47.366Z,1007.66
2017-02-03T04:11:28.049Z,1007.58
2017-02-03T04:12:08.715Z,1007.71
2017-02-03T04:12:49.354Z,1007.65
2017-02-03T04:13:30.085Z,1007.68
2017-02-03T04:14:10.714Z,1007.73
2017-02-03T04:14:51.352Z,1007.74
2017-02-03T04:15:32.028Z,1007.74
2017-02-03T04:16:12.764Z,1007.73
2017-02-03T04:16:53.436Z,1007.62
2017-02-03T04:17:34.067Z,1007.55
2017-02-03T04:18:14.697Z,1007.48
2017-02-03T04:18:55.366Z,1007.35
2017-02-03T04:19:36.002Z,1007.48
2017-02-03T04:20:16.698Z,1007.5
2017-02-03T04:20:57.370Z,1007.49
2017-02-03T04:21:37.999Z,1007.48
2017-02-03T04:22:18.731Z,1007.57
2017-02-03T04:22:59.474Z,1007.47
2017-02-03T04:23:40.153Z,1007.42
2017-02-03T04:24:20.779Z,1007.47
2017-02-03T04:25:01.400Z,1007.14
2017-02-03T04:25:42.098Z,1007.45
2017-02-03T04:26:22.732Z,1007.44
2017-02-03T04:27:03.350Z,1007.47
2017-02-03T04:27:44.015Z,1007.44
2017-02-03T04:28:24.640Z,1007.52
2017-02-03T04:29:05.346Z,1007.41
2017-02-03T04:29:46.039Z,1007.42
2017-02-03T04:30:26.665Z,1007.4
2017-02-03T04:31:07.373Z,1007.36
2017-02-03T04:31:47.999Z,1007.34
2017-02-03T04:32:28.641Z,1007.37
2017-02-03T04:33:09.265Z,1007.38
2017-02-03T04:33:49.916Z,1007.38
2017-02-03T04:34:30.541Z,1007.35
2017-02-03T04:35:11.239Z,1007.37
2017-02-03T04:35:51.921Z,1007.36
2017-02-03T04:36:32.579Z,1007.36
2017-02-03T04:37:13.268Z,1007.49
2017-02-03T04:37:54.013Z,1007.43
2017-02-03T04:38:34.682Z,1007.37
2017-02-03T04:39:15.318Z,1007.34
2017-02-03T04:39:56.057Z,1007.41
2017-02-03T04:40:36.726Z,1007.35
2017-02-03T04:41:17.438Z,1007.44
2017-02-03T04:41:58.082Z,1007.31
2017-02-03T04:42:38.828Z,1007.34
2017-02-03T04:43:19.544Z,1007.4
2017-02-03T04:44:00.179Z,1007.45
2017-02-03T04:44:40.869Z,1007.46
2017-02-03T04:45:21.501Z,1007.36
2017-02-03T04:46:02.127Z,1007.32
2017-02-03T04:46:42.766Z,1007.48
2017-02-03T04:47:23.401Z,1007.5
2017-02-03T04:48:04.055Z,1007.43
2017-02-03T04:48:44.696Z,1007.44
2017-02-03T04:49:25.380Z,1007.5
2017-02-03T04:50:06.078Z,1007.42
2017-02-03T04:50:46.721Z,1007.41
2017-02-03T04:51:27.365Z,1007.43
2017-02-03T04:52:08.053Z,1007.47
2017-02-03T04:52:48.680Z,1007.48
2017-02-03T04:53:29.403Z,1007.45
2017-02-03T04:54:10.032Z,1007.41
2017-02-03T04:54:50.674Z,1007.43
2017-02-03T04:55:31.297Z,1007.39
2017-02-03T04:56:11.937Z,1007.44
2017-02-03T04:56:52.568Z,1007.39
2017-02-03T04:57:33.195Z,1007.44
2017-02-03T04:58:13.921Z,1007.44
2017-02-03T04:58:54.561Z,1007.45
2017-02-03T04:59:35.193Z,1007.47
2017-02-03T05:00:15.885Z,1007.5
2017-02-03T05:00:56.644Z,1007.49
2017-02-03T05:01:37.161Z,1007.59
2017-02-03T05:02:17.783Z,1007.55
2017-02-03T05:02:58.420Z,1007.57
2017-02-03T05:03:39.057Z,1007.59
2017-02-03T05:04:19.748Z,1007.58
2017-02-03T05:05:00.372Z,1007.61
2017-02-03T05:05:41.952Z,1007.48
2017-02-03T05:06:22.598Z,1007.56
2017-02-03T05:07:03.226Z,1007.59
2017-02-03T05:07:43.949Z,1007.62
2017-02-03T05:08:24.571Z,1007.58
2017-02-03T05:09:05.208Z,1007.6
2017-02-03T05:09:45.864Z,1007.64
2017-02-03T05:10:26.628Z,1007.61
2017-02-03T05:11:07.250Z,1007.66
2017-02-03T05:11:47.873Z,1007.61
2017-02-03T05:12:28.514Z,1007.63
2017-02-03T05:13:09.178Z,1007.6
2017-02-03T05:13:49.810Z,1007.68
2017-02-03T05:14:30.445Z,1007.6
2017-02-03T05:15:11.102Z,1007.66
2017-02-03T05:15:51.753Z,1007.72
2017-02-03T05:16:32.362Z,1007.73
2017-02-03T05:17:13.996Z,1007.73
2017-02-03T05:17:54.632Z,1007.64
2017-02-03T05:18:35.261Z,1007.69
2017-02-03T05:19:15.917Z,1007.64
2017-02-03T05:19:56.567Z,1007.65
2017-02-03T05:20:37.192Z,1007.64
2017-02-03T05:21:17.819Z,1007.71
2017-02-03T05:21:58.460Z,1007.72
2017-02-03T05:22:39.151Z,1007.64
2017-02-03T05:23:19.821Z,1007.67
2017-02-03T05:24:00.452Z,1007.65
2017-02-03T05:24:41.086Z,1007.81
2017-02-03T05:25:21.733Z,1007.66
2017-02-03T05:26:02.368Z,1007.68
2017-02-03T05:26:43.001Z,1007.74
2017-02-03T05:27:23.631Z,1007.72
2017-02-03T05:28:04.267Z,1007.71
2017-02-03T05:28:44.901Z,1007.72
2017-02-03T05:29:25.595Z,1007.69
2017-02-03T05:30:06.221Z,1007.72
2017-02-03T05:30:46.886Z,1007.73
2017-02-03T05:31:27.511Z,1007.75
2017-02-03T05:32:08.148Z,1007.73
2017-02-03T05:32:48.814Z,1007.94
2017-02-03T05:33:29.553Z,1007.9
2017-02-03T05:34:10.178Z,1007.83
2017-02-03T05:34:50.798Z,1007.82
2017-02-03T05:35:31.444Z,1007.9
2017-02-03T05:36:12.081Z,1007.85
2017-02-03T05:36:52.721Z,1007.85
2017-02-03T05:37:33.373Z,1007.91
2017-02-03T05:38:14.017Z,1007.89
2017-02-03T05:38:54.649Z,1007.89
2017-02-03T05:39:35.267Z,1007.88
2017-02-03T05:40:15.903Z,1007.88
2017-02-03T05:40:56.639Z,1007.87
2017-02-03T05:41:37.268Z,1007.82
2017-02-03T05:42:17.974Z,1007.88
2017-02-03T05:42:58.559Z,1007.9
2017-02-03T05:43:39.187Z,1007.87
2017-02-03T05:44:19.821Z,1007.89
2017-02-03T05:45:00.477Z,1007.85
2017-02-03T05:45:41.116Z,1007.78
2017-02-03T05:46:21.778Z,1007.82
2017-02-03T05:47:02.408Z,1007.81
2017-02-03T05:47:43.118Z,1007.8
2017-02-03T05:48:23.793Z,1007.8
2017-02-03T05:49:04.416Z,1007.78
2017-02-03T05:49:45.035Z,1007.73
2017-02-03T05:50:25.726Z,1007.81
2017-02-03T05:51:06.353Z,1007.71
2017-02-03T05:51:46.983Z,1007.69
2017-02-03T05:52:27.654Z,1007.62
2017-02-03T05:53:08.281Z,1007.68
2017-02-03T05:53:48.972Z,1007.7
2017-02-03T05:54:29.593Z,1007.66
2017-02-03T05:55:10.230Z,1007.74
2017-02-03T05:55:50.963Z,1007.68
2017-02-03T05:56:31.598Z,1007.68
2017-02-03T05:57:12.228Z,1007.76
2017-02-03T05:57:52.864Z,1007.64
2017-02-03T05:58:33.561Z,1007.71
2017-02-03T05:59:14.208Z,1007.72
2017-02-03T05:59:54.902Z,1007.72
2017-02-03T06:00:35.536Z,1007.7
2017-02-03T06:01:16.170Z,1007.68
2017-02-03T06:01:56.840Z,1007.78
2017-02-03T06:02:37.438Z,1007.75
2017-02-03T06:03:18.169Z,1007.77
2017-02-03T06:03:58.706Z,1007.74
2017-02-03T06:04:40.188Z,1007.79
2017-02-03T06:05:20.950Z,1007.71
2017-02-03T06:06:01.599Z,1007.75
2017-02-03T06:06:42.273Z,1007.77
2017-02-03T06:07:22.913Z,1007.74
2017-02-03T06:08:03.554Z,1007.74
2017-02-03T06:08:44.295Z,1007.79
2017-02-03T06:09:24.937Z,1007.79
2017-02-03T06:10:05.573Z,1007.74
2017-02-03T06:10:46.357Z,1007.72
2017-02-03T06:11:27.090Z,1007.73
2017-02-03T06:12:07.827Z,1007.71
2017-02-03T06:12:48.362Z,1007.7
2017-02-03T06:13:29.071Z,1007.7
2017-02-03T06:14:09.700Z,1007.74
2017-02-03T06:14:50.323Z,1007.78
2017-02-03T06:15:31.052Z,1007.84
2017-02-03T06:16:11.665Z,1007.74
2017-02-03T06:16:52.286Z,1007.77
2017-02-03T06:17:32.919Z,1007.85
2017-02-03T06:18:13.547Z,1007.85
2017-02-03T06:18:54.183Z,1007.85
2017-02-03T06:19:34.887Z,1007.87
2017-02-03T06:20:15.582Z,1007.85
2017-02-03T06:20:56.225Z,1007.85
2017-02-03T06:21:36.853Z,1007.89
2017-02-03T06:22:17.478Z,1007.89
2017-02-03T06:22:58.114Z,1007.93
2017-02-03T06:23:38.774Z,1007.96
2017-02-03T06:24:19.401Z,1007.96
2017-02-03T06:25:00.037Z,1008.03
2017-02-03T06:25:40.707Z,1008.04
2017-02-03T06:26:21.342Z,1008.04
2017-02-03T06:27:01.976Z,1008.02
2017-02-03T06:27:42.610Z,1008.1
2017-02-03T06:28:23.235Z,1008.05
2017-02-03T06:29:03.854Z,1008.14
2017-02-03T06:29:44.529Z,1008.05
2017-02-03T06:30:25.158Z,1008.25
2017-02-03T06:31:05.787Z,1008.09
2017-02-03T06:31:46.486Z,1008.12
2017-02-03T06:32:27.159Z,1008.16
2017-02-03T06:33:07.794Z,1008.11
2017-02-03T06:33:48.447Z,1008.17
2017-02-03T06:34:29.125Z,1008.12
2017-02-03T06:35:09.752Z,1008.05
2017-02-03T06:35:50.444Z,1008.07
2017-02-03T06:36:31.132Z,1008.14
2017-02-03T06:37:11.751Z,1008.18
2017-02-03T06:37:52.399Z,1008.09
2017-02-03T06:38:33.045Z,1008.1
2017-02-03T06:39:13.713Z,1008.06
2017-02-03T06:39:54.414Z,1008.09
2017-02-03T06:40:35.141Z,1008.02
2017-02-03T06:41:15.877Z,1007.99
2017-02-03T06:41:56.503Z,1008.07
2017-02-03T06:42:37.205Z,1008.05
2017-02-03T06:43:17.831Z,1008.16
2017-02-03T06:43:58.506Z,1008.07
2017-02-03T06:44:39.082Z,1008.02
2017-02-03T06:45:19.772Z,1008.04
2017-02-03T06:46:00.480Z,1007.96
2017-02-03T06:46:41.124Z,1008
2017-02-03T06:47:21.879Z,1008.08
2017-02-03T06:48:02.538Z,1007.95
2017-02-03T06:48:43.170Z,1008.03
2017-02-03T06:49:23.918Z,1007.98
2017-02-03T06:50:04.642Z,1008.04
2017-02-03T06:50:45.323Z,1008.06
2017-02-03T06:51:25.952Z,1007.99
2017-02-03T06:52:06.672Z,1007.88
2017-02-03T06:52:47.332Z,1008.02
2017-02-03T06:53:27.957Z,1007.96
2017-02-03T06:54:08.598Z,1008
2017-02-03T06:54:49.303Z,1008.05
2017-02-03T06:55:29.944Z,1008.04
2017-02-03T06:56:10.612Z,1008.19
2017-02-03T06:56:51.248Z,1008.14
2017-02-03T06:57:31.882Z,1008.19
2017-02-03T06:58:12.509Z,1008.08
2017-02-03T06:58:53.154Z,1008.16
2017-02-03T06:59:33.780Z,1008.16
2017-02-03T07:00:14.480Z,1008.09
2017-02-03T07:00:55.215Z,1008.05
2017-02-03T07:01:35.905Z,1008.08
2017-02-03T07:02:16.538Z,1008.18
2017-02-03T07:02:57.250Z,1008.18
2017-02-03T07:03:37.922Z,1008.19
2017-02-03T07:04:18.551Z,1008.22
2017-02-03T07:04:59.299Z,1008.18
2017-02-03T07:05:39.960Z,1008.27
2017-02-03T07:06:20.665Z,1008.3
2017-02-03T07:07:01.308Z,1008.23
2017-02-03T07:07:41.950Z,1008.22
2017-02-03T07:08:22.591Z,1008.22
2017-02-03T07:09:03.215Z,1008.26
2017-02-03T07:09:43.856Z,1008.3
2017-02-03T07:10:24.563Z,1008.19
2017-02-03T07:11:05.192Z,1008.26
2017-02-03T07:11:45.819Z,1008.28
2017-02-03T07:12:26.441Z,1008.21
2017-02-03T07:13:07.081Z,1008.21
2017-02-03T07:13:47.713Z,1008.17
2017-02-03T07:14:28.346Z,1008.21
2017-02-03T07:15:08.990Z,1008.16
2017-02-03T07:15:49.655Z,1008.15
2017-02-03T07:16:30.260Z,1008.04
2017-02-03T07:17:10.898Z,1008.17
2017-02-03T07:17:51.566Z,1008.18
2017-02-03T07:18:32.188Z,1008.16
2017-02-03T07:19:12.823Z,1008.23
2017-02-03T07:19:53.464Z,1008.44
2017-02-03T07:20:34.148Z,1008.25
2017-02-03T07:21:14.778Z,1008.26
2017-02-03T07:21:55.520Z,1008.29
2017-02-03T07:22:36.219Z,1008.28
2017-02-03T07:23:16.837Z,1008.3
2017-02-03T07:23:57.457Z,1008.29
2017-02-03T07:24:38.192Z,1008.3
2017-02-03T07:25:18.817Z,1008.21
2017-02-03T07:25:59.449Z,1008.39
2017-02-03T07:26:40.088Z,1008.46
2017-02-03T07:27:20.721Z,1008.26
2017-02-03T07:28:01.363Z,1008.31
2017-02-03T07:28:42.002Z,1008.32
2017-02-03T07:29:22.633Z,1008.32
2017-02-03T07:30:03.293Z,1008.31
2017-02-03T07:30:44.019Z,1008.45
2017-02-03T07:31:24.687Z,1008.37
2017-02-03T07:32:05.322Z,1008.41
2017-02-03T07:32:45.945Z,1008.38
2017-02-03T07:33:27.527Z,1008.37
2017-02-03T07:34:08.167Z,1008.36
2017-02-03T07:34:48.805Z,1008.39
2017-02-03T07:35:29.501Z,1008.41
2017-02-03T07:36:10.154Z,1008.48
2017-02-03T07:36:50.789Z,1008.52
2017-02-03T07:37:31.423Z,1008.45
2017-02-03T07:38:12.047Z,1008.49
2017-02-03T07:38:52.681Z,1008.54
2017-02-03T07:39:33.353Z,1008.57
2017-02-03T07:40:14.000Z,1008.47
2017-02-03T07:40:54.790Z,1008.51
2017-02-03T07:41:35.445Z,1008.49
2017-02-03T07:42:16.096Z,1008.43
2017-02-03T07:42:56.803Z,1008.49
2017-02-03T07:43:37.432Z,1008.43
2017-02-03T07:44:18.100Z,1008.41
2017-02-03T07:44:58.720Z,1008.39
2017-02-03T07:45:39.365Z,1008.49
2017-02-03T07:46:20.079Z,1008.51
2017-02-03T07:47:00.722Z,1008.44
2017-02-03T07:47:41.419Z,1008.45
2017-02-03T07:48:22.070Z,1008.49
2017-02-03T07:49:02.704Z,1008.44
2017-02-03T07:49:43.439Z,1008.49
2017-02-03T07:50:24.137Z,1008.47
2017-02-03T07:51:04.760Z,1008.43
2017-02-03T07:51:45.452Z,1008.41
2017-02-03T07:52:26.167Z,1008.4
2017-02-03T07:53:06.856Z,1008.38
2017-02-03T07:53:47.477Z,1008.46
2017-02-03T07:54:28.108Z,1008.43
2017-02-03T07:55:08.782Z,1008.5
2017-02-03T07:55:49.410Z,1008.43
2017-02-03T07:56:30.112Z,1008.44
2017-02-03T07:57:10.813Z,1008.29
2017-02-03T07:57:51.439Z,1008.42
2017-02-03T07:58:32.154Z,1008.42
2017-02-03T07:59:12.826Z,1008.42
2017-02-03T07:59:53.482Z,1008.35
2017-02-03T08:00:34.176Z,1008.4
2017-02-03T08:01:14.810Z,1008.35
2017-02-03T08:01:55.514Z,1008.34
2017-02-03T08:02:36.131Z,1008.33
2017-02-03T08:03:16.849Z,1008.32
2017-02-03T08:03:57.527Z,1008.31
2017-02-03T08:04:38.157Z,1008.28
2017-02-03T08:05:18.882Z,1008.3
2017-02-03T08:05:59.570Z,1008.33
2017-02-03T08:06:40.213Z,1008.31
2017-02-03T08:07:20.881Z,1008.31
2017-02-03T08:08:01.574Z,1008.24
2017-02-03T08:08:42.235Z,1008.26
2017-02-03T08:09:22.867Z,1008.34
2017-02-03T08:10:03.497Z,1008.34
2017-02-03T08:10:44.161Z,1008.32
2017-02-03T08:11:24.795Z,1008.34
2017-02-03T08:12:05.500Z,1008.4
2017-02-03T08:12:46.173Z,1008.4
2017-02-03T08:13:26.804Z,1008.42
2017-02-03T08:14:07.444Z,1008.38